Time;durP1;ratioP1;P1;durP2;ratioP2;P2;SDS_P1;SDS_P2;PMS_P1;PMS_P2;Temp;Humidity;BMP_temperature;BMP_pressure;BME280_temperature;BME280_humidity;BME280_pressure;Samples;Min_cycle;Max_cycle;Signal;HPM_P1;HPM_P2
2021/01/17 00:00:48;;;;;;;48.97;29.27;;;1.00;86.40;;;;;;5128242;27;20080;-78
2021/01/17 00:03:13;;;;;;;45.17;27.40;;;1.00;86.40;;;;;;5122717;27;20038;-75
2021/01/17 00:05:43;;;;;;;43.65;28.45;;;1.00;86.20;;;;;;5104388;27;20076;-76
2021/01/17 00:08:10;;;;;;;45.60;28.83;;;1.00;86.40;;;;;;5126717;27;20084;-76
2021/01/17 00:10:37;;;;;;;44.10;27.97;;;1.00;86.40;;;;;;5123235;27;20035;-78
2021/01/17 00:13:04;;;;;;;45.20;28.33;;;1.00;86.20;;;;;;5126446;27;20051;-78
2021/01/17 00:15:30;;;;;;;43.53;27.33;;;1.00;86.20;;;;;;5128684;27;20117;-78
2021/01/17 00:17:56;;;;;;;43.70;27.30;;;1.00;86.20;;;;;;5129900;27;20111;-75
2021/01/17 00:20:23;;;;;;;45.13;28.30;;;1.00;86.40;;;;;;5129079;27;20096;-78
2021/01/17 00:22:53;;;;;;;46.10;28.60;;;1.00;86.20;;;;;;5126431;27;20031;-78
2021/01/17 00:25:20;;;;;;;47.00;29.40;;;1.00;86.30;;;;;;5129372;27;20114;-78
2021/01/17 00:27:50;;;;;;;48.43;29.90;;;1.00;86.00;;;;;;5127867;27;20028;-78
2021/01/17 00:30:19;;;;;;;45.63;28.27;;;1.00;86.10;;;;;;5123794;27;20183;-78
2021/01/17 00:32:49;;;;;;;44.37;28.67;;;1.00;86.20;;;;;;5129947;27;20035;-78
2021/01/17 00:35:16;;;;;;;48.77;30.07;;;1.00;86.10;;;;;;5125836;27;20515;-78
2021/01/17 00:37:44;;;;;;;44.53;29.60;;;1.00;86.20;;;;;;5128089;27;20135;-78
2021/01/17 00:40:12;;;;;;;43.92;28.48;;;1.00;86.00;;;;;;5129952;27;20478;-78
2021/01/17 00:42:44;;;;;;;49.07;29.20;;;1.00;86.10;;;;;;5124011;27;20028;-79
2021/01/17 00:45:12;;;;;;;42.27;22.63;;;1.00;86.10;;;;;;5133523;27;20042;-78
2021/01/17 00:47:42;;;;;;;46.83;29.63;;;1.00;86.10;;;;;;5131834;27;20323;-78
2021/01/17 00:50:09;;;;;;;48.53;31.63;;;1.00;86.10;;;;;;5115362;27;20036;-78
2021/01/17 00:52:34;;;;;;;48.27;30.43;;;1.00;86.00;;;;;;5129718;27;20035;-78
2021/01/17 00:55:03;;;;;;;42.53;28.50;;;1.00;86.00;;;;;;5115432;27;20035;-78
2021/01/17 00:57:29;;;;;;;47.63;30.77;;;1.00;85.90;;;;;;5127819;27;20522;-78
2021/01/17 00:59:55;;;;;;;44.87;29.20;;;1.00;85.90;;;;;;5121759;27;20190;-78
2021/01/17 01:02:20;;;;;;;48.27;30.60;;;1.00;86.00;;;;;;5122135;27;20038;-78
2021/01/17 01:04:46;;;;;;;47.27;30.10;;;1.00;86.00;;;;;;5123076;27;20031;-78
2021/01/17 01:07:12;;;;;;;42.97;27.73;;;1.00;85.90;;;;;;5126734;27;20028;-78
2021/01/17 01:09:38;;;;;;;48.40;30.30;;;1.00;85.90;;;;;;5124260;27;20036;-78
2021/01/17 01:12:04;;;;;;;47.70;29.50;;;0.90;85.70;;;;;;5113470;27;20058;-78
2021/01/17 01:14:29;;;;;;;47.30;29.70;;;0.90;86.00;;;;;;5122701;27;20027;-78
2021/01/17 01:16:55;;;;;;;46.40;30.07;;;0.90;85.90;;;;;;5124576;27;20049;-79
2021/01/17 01:19:21;;;;;;;43.27;29.20;;;1.00;86.00;;;;;;5123866;27;20039;-78
2021/01/17 01:21:47;;;;;;;42.70;28.30;;;0.90;85.70;;;;;;5118354;27;20038;-78
2021/01/17 01:24:13;;;;;;;47.70;30.47;;;0.90;85.80;;;;;;5132843;27;20072;-78
2021/01/17 01:26:42;;;;;;;43.63;28.40;;;0.90;85.80;;;;;;5132852;27;20093;-78
2021/01/17 01:29:09;;;;;;;42.03;28.10;;;0.90;85.80;;;;;;5127663;27;20071;-77
2021/01/17 01:31:35;;;;;;;43.17;28.10;;;0.90;85.70;;;;;;5131635;27;20043;-78
2021/01/17 01:34:02;;;;;;;42.37;27.83;;;0.90;85.60;;;;;;5136535;27;20034;-77
2021/01/17 01:36:30;;;;;;;44.60;29.00;;;0.90;85.70;;;;;;5128950;27;20037;-77
2021/01/17 01:38:57;;;;;;;46.27;29.20;;;0.90;85.80;;;;;;5134558;27;20106;-78
2021/01/17 01:41:28;;;;;;;43.80;28.20;;;0.90;85.70;;;;;;5136033;27;20027;-78
2021/01/17 01:43:54;;;;;;;43.10;27.23;;;0.90;85.80;;;;;;5133696;27;20088;-78
2021/01/17 01:46:22;;;;;;;41.70;28.20;;;0.90;85.90;;;;;;5141369;27;20032;-77
2021/01/17 01:48:50;;;;;;;44.33;29.07;;;0.90;85.80;;;;;;5138709;27;20031;-78
2021/01/17 01:51:22;;;;;;;44.70;29.83;;;0.90;85.90;;;;;;5133624;27;20092;-78
2021/01/17 01:53:55;;;;;;;43.87;28.87;;;0.90;85.80;;;;;;5135905;27;20084;-78
2021/01/17 01:56:22;;;;;;;42.87;28.77;;;0.90;85.90;;;;;;5138000;27;20034;-78
2021/01/17 01:58:50;;;;;;;43.90;27.97;;;0.90;86.00;;;;;;5137759;27;20039;-77
2021/01/17 02:01:15;;;;;;;46.90;31.57;;;0.90;85.90;;;;;;5123737;27;20030;-78
2021/01/17 02:03:46;;;;;;;45.43;30.07;;;0.90;85.60;;;;;;5137696;27;20084;-77
2021/01/17 02:06:12;;;;;;;47.43;29.77;;;1.00;85.70;;;;;;5131417;27;20042;-77
2021/01/17 02:09:05;;;;;;;46.10;29.00;;;0.90;85.70;;;;;;5137393;27;20397;-77
2021/01/17 02:11:50;;;;;;;46.60;29.97;;;0.90;85.60;;;;;;5133102;27;20066;-77
2021/01/17 02:14:16;;;;;;;43.60;28.37;;;0.90;85.50;;;;;;5131777;27;20039;-77
2021/01/17 02:16:43;;;;;;;43.73;28.50;;;0.90;85.70;;;;;;5133942;27;20047;-78
2021/01/17 02:19:11;;;;;;;42.40;28.23;;;0.80;85.50;;;;;;5116179;27;20104;-78
2021/01/17 02:21:41;;;;;;;44.47;28.90;;;0.80;86.20;;;;;;5117315;27;20032;-78
2021/01/17 02:24:11;;;;;;;46.40;29.17;;;0.90;86.00;;;;;;5129018;27;20103;-77
2021/01/17 02:26:40;;;;;;;47.03;30.40;;;0.80;85.80;;;;;;5132299;27;20027;-77
2021/01/17 02:29:12;;;;;;;48.43;30.67;;;0.90;85.80;;;;;;5130979;27;20047;-79
2021/01/17 02:31:40;;;;;;;47.30;29.27;;;0.90;85.90;;;;;;5125026;27;20123;-79
2021/01/17 02:34:08;;;;;;;45.37;29.57;;;0.90;85.80;;;;;;5125486;27;20106;-78
2021/01/17 02:36:40;;;;;;;43.42;29.95;;;0.90;85.70;;;;;;5126560;27;20043;-78
2021/01/17 02:39:16;;;;;;;50.23;30.43;;;0.90;85.80;;;;;;5129888;27;20042;-78
2021/01/17 02:41:59;;;;;;;44.93;29.13;;;0.90;85.90;;;;;;5130119;27;20411;-78
2021/01/17 02:44:33;;;;;;;45.92;28.58;;;0.80;85.80;;;;;;5135029;27;20040;-78
2021/01/17 02:47:01;;;;;;;48.53;29.90;;;0.80;85.80;;;;;;5130992;27;20032;-78
2021/01/17 02:49:28;;;;;;;46.07;30.77;;;0.80;86.10;;;;;;5130142;27;20036;-78
2021/01/17 02:51:54;;;;;;;47.20;29.67;;;0.70;86.40;;;;;;5136002;27;20089;-79
2021/01/17 02:54:39;;;;;;;43.97;28.83;;;0.80;86.20;;;;;;5135851;27;20035;-78
2021/01/17 02:57:07;;;;;;;43.43;27.87;;;0.80;86.10;;;;;;5132076;27;20836;-78
2021/01/17 03:00:00;;;;;;;43.07;28.40;;;0.80;86.20;;;;;;5135087;27;20080;-78
2021/01/17 03:02:31;;;;;;;42.13;28.77;;;0.80;86.10;;;;;;5124206;27;22358;-78
2021/01/17 03:05:06;;;;;;;46.00;29.83;;;0.80;86.10;;;;;;5131367;27;20364;-78
2021/01/17 03:07:34;;;;;;;47.07;29.87;;;0.80;86.00;;;;;;5133293;27;20036;-79
2021/01/17 03:10:02;;;;;;;42.30;28.30;;;0.80;86.00;;;;;;5131132;27;20062;-78
2021/01/17 03:12:27;;;;;;;46.10;30.63;;;0.80;86.00;;;;;;5116813;27;20031;-79
2021/01/17 03:14:57;;;;;;;49.95;32.00;;;0.80;86.20;;;;;;5135411;27;20053;-78
2021/01/17 03:17:23;;;;;;;42.93;29.40;;;0.80;86.30;;;;;;5135796;27;20042;-79
2021/01/17 03:19:49;;;;;;;46.40;30.20;;;0.80;86.30;;;;;;5131008;27;20068;-76
2021/01/17 03:22:14;;;;;;;45.50;29.63;;;0.80;86.30;;;;;;5124527;27;20028;-75
2021/01/17 03:24:40;;;;;;;47.70;29.87;;;0.90;86.30;;;;;;5104114;27;20039;-75
2021/01/17 03:27:06;;;;;;;48.03;30.90;;;0.90;86.20;;;;;;5114712;27;20540;-78
2021/01/17 03:29:32;;;;;;;44.50;29.07;;;0.90;86.10;;;;;;5118025;27;20050;-77
2021/01/17 03:31:58;;;;;;;48.57;31.17;;;0.90;86.10;;;;;;5133892;27;20046;-78
2021/01/17 03:34:23;;;;;;;44.70;30.47;;;0.80;86.00;;;;;;5115572;27;20043;-78
2021/01/17 03:36:49;;;;;;;46.20;30.37;;;0.80;86.10;;;;;;5133018;27;20034;-78
2021/01/17 03:39:15;;;;;;;45.90;29.93;;;0.80;86.10;;;;;;5132484;27;20443;-79
2021/01/17 03:41:41;;;;;;;46.22;30.92;;;0.80;86.20;;;;;;5133848;27;20038;-79
2021/01/17 03:44:06;;;;;;;45.67;30.23;;;0.80;86.10;;;;;;5133975;27;20066;-79
2021/01/17 03:46:32;;;;;;;45.47;28.67;;;0.80;85.90;;;;;;5113479;27;20027;-78
2021/01/17 03:48:58;;;;;;;50.23;30.10;;;0.80;86.20;;;;;;5136620;27;20478;-79
2021/01/17 03:51:25;;;;;;;45.00;29.83;;;0.80;86.40;;;;;;5130057;27;20046;-78
2021/01/17 03:53:50;;;;;;;47.53;30.00;;;0.80;86.10;;;;;;5127515;27;20027;-78
2021/01/17 03:56:17;;;;;;;49.23;30.83;;;0.90;86.20;;;;;;5130887;27;20038;-78
2021/01/17 03:58:43;;;;;;;47.33;31.30;;;0.90;86.20;;;;;;5114643;27;20036;-78
2021/01/17 04:01:09;;;;;;;49.83;30.60;;;0.80;86.20;;;;;;5130257;27;20035;-77
2021/01/17 04:03:34;;;;;;;51.93;32.77;;;0.80;86.00;;;;;;5128805;27;20045;-77
2021/01/17 04:06:00;;;;;;;48.90;31.07;;;0.80;86.10;;;;;;5116575;27;20118;-78
2021/01/17 04:08:26;;;;;;;48.20;31.03;;;0.80;85.90;;;;;;5133444;27;20039;-77
2021/01/17 04:10:52;;;;;;;49.00;31.83;;;0.80;86.10;;;;;;5128284;27;20050;-77
2021/01/17 04:13:17;;;;;;;55.30;31.60;;;0.70;86.30;;;;;;5128858;27;20035;-77
2021/01/17 04:15:43;;;;;;;51.00;31.20;;;0.70;86.20;;;;;;5135494;27;20095;-77
2021/01/17 04:18:09;;;;;;;48.57;32.10;;;0.70;86.40;;;;;;5132802;27;20039;-77
2021/01/17 04:20:36;;;;;;;49.83;32.13;;;0.60;86.40;;;;;;5131450;27;20125;-78
2021/01/17 04:23:05;;;;;;;51.27;33.20;;;0.60;86.50;;;;;;5127214;27;20118;-78
2021/01/17 04:25:31;;;;;;;47.90;31.90;;;0.50;86.50;;;;;;5121140;27;20036;-75
2021/01/17 04:27:58;;;;;;;50.20;31.67;;;0.50;86.70;;;;;;5122882;27;20036;-75
2021/01/17 04:30:29;;;;;;;53.00;32.77;;;0.50;87.00;;;;;;5124278;27;20101;-75
2021/01/17 04:32:56;;;;;;;47.67;29.97;;;0.50;87.00;;;;;;5123301;27;20368;-75
2021/01/17 04:35:22;;;;;;;53.50;32.10;;;0.50;87.00;;;;;;5123170;27;20505;-75
2021/01/17 04:37:47;;;;;;;53.60;32.77;;;0.40;87.20;;;;;;5126844;27;20035;-75
2021/01/17 04:40:14;;;;;;;54.10;32.63;;;0.50;87.20;;;;;;5121308;27;20129;-75
2021/01/17 04:42:47;;;;;;;54.70;33.50;;;0.50;87.20;;;;;;5103925;27;20044;-75
2021/01/17 04:45:16;;;;;;;55.58;32.50;;;0.50;87.30;;;;;;5120912;27;20045;-75
2021/01/17 04:47:45;;;;;;;53.17;32.50;;;0.50;87.20;;;;;;5122440;27;20123;-75
2021/01/17 04:50:14;;;;;;;54.23;32.20;;;0.50;87.30;;;;;;5125807;27;20105;-76
2021/01/17 04:52:47;;;;;;;53.97;33.33;;;0.40;87.40;;;;;;5108689;27;20047;-75
2021/01/17 04:55:14;;;;;;;53.27;32.67;;;0.40;87.70;;;;;;5126964;27;20031;-75
2021/01/17 04:57:55;;;;;;;55.60;33.60;;;0.40;87.20;;;;;;5122972;27;20848;-75
2021/01/17 05:00:28;;;;;;;56.07;32.70;;;0.50;87.20;;;;;;5120847;27;20051;-75
2021/01/17 05:02:56;;;;;;;55.80;32.00;;;0.50;87.40;;;;;;5121517;27;20090;-75
2021/01/17 05:05:24;;;;;;;53.43;31.67;;;0.60;87.40;;;;;;5127249;27;20145;-75
2021/01/17 05:08:14;;;;;;;51.83;31.80;;;0.60;87.10;;;;;;5122284;27;20122;-75
2021/01/17 05:10:43;;;;;;;56.77;32.47;;;0.60;87.20;;;;;;5122854;27;20031;-75
2021/01/17 05:13:11;;;;;;;56.63;32.53;;;0.60;87.30;;;;;;5126333;27;20047;-75
2021/01/17 05:15:41;;;;;;;54.87;33.73;;;0.60;87.10;;;;;;5126503;27;20039;-75
2021/01/17 05:18:08;;;;;;;54.23;32.40;;;0.60;87.10;;;;;;5127123;27;20054;-75
2021/01/17 05:20:34;;;;;;;54.00;32.03;;;0.70;87.10;;;;;;5125084;27;20482;-75
2021/01/17 05:23:00;;;;;;;54.57;33.10;;;0.70;87.20;;;;;;5124492;27;20787;-75
2021/01/17 05:25:29;;;;;;;56.80;33.40;;;0.70;87.30;;;;;;5129272;27;20065;-75
2021/01/17 05:27:58;;;;;;;55.60;33.57;;;0.70;87.10;;;;;;5096653;27;20074;-75
2021/01/17 05:30:24;;;;;;;57.73;34.40;;;0.80;87.20;;;;;;5128287;27;20047;-75
2021/01/17 05:32:54;;;;;;;59.53;34.67;;;0.80;87.00;;;;;;5125772;27;20043;-75
2021/01/17 05:35:22;;;;;;;54.47;33.03;;;0.80;87.10;;;;;;5125295;27;20039;-75
2021/01/17 05:37:52;;;;;;;58.90;35.03;;;0.90;87.10;;;;;;5107722;27;20045;-75
2021/01/17 05:40:20;;;;;;;56.63;33.40;;;0.90;87.00;;;;;;5121558;27;20543;-75
2021/01/17 05:42:47;;;;;;;56.07;33.40;;;0.90;86.90;;;;;;5124854;27;20441;-75
2021/01/17 05:45:20;;;;;;;55.63;33.77;;;0.90;86.80;;;;;;5129257;27;20031;-75
2021/01/17 05:47:56;;;;;;;58.95;33.33;;;1.00;86.80;;;;;;5125029;27;20041;-75
2021/01/17 05:50:23;;;;;;;64.13;35.57;;;1.00;86.70;;;;;;5124483;27;20039;-75
2021/01/17 05:52:54;;;;;;;63.10;35.73;;;1.00;86.80;;;;;;5106060;27;20047;-75
2021/01/17 05:55:28;;;;;;;62.53;35.10;;;1.00;86.80;;;;;;5126264;27;20036;-75
2021/01/17 05:57:54;;;;;;;58.30;33.20;;;1.00;86.70;;;;;;5126534;27;20119;-75
2021/01/17 06:00:33;;;;;;;60.33;34.70;;;1.00;86.70;;;;;;5123098;27;20488;-75
2021/01/17 06:03:01;;;;;;;65.23;35.63;;;1.00;86.80;;;;;;5123719;27;20027;-75
2021/01/17 06:05:28;;;;;;;61.80;35.30;;;1.00;86.80;;;;;;5112726;27;20035;-75
2021/01/17 06:07:55;;;;;;;63.53;35.67;;;1.00;86.80;;;;;;5124310;27;20497;-75
2021/01/17 06:10:24;;;;;;;60.60;35.10;;;1.00;86.70;;;;;;5122759;27;20039;-75
2021/01/17 06:12:51;;;;;;;61.75;34.40;;;1.00;86.80;;;;;;5121953;27;20088;-75
2021/01/17 06:15:17;;;;;;;63.43;36.90;;;1.00;86.90;;;;;;5123352;27;20479;-75
2021/01/17 06:17:47;;;;;;;59.20;35.70;;;1.00;86.90;;;;;;5107230;27;20042;-75
2021/01/17 06:20:27;;;;;;;62.53;35.00;;;1.00;86.90;;;;;;5123067;27;20040;-75
2021/01/17 06:22:57;;;;;;;64.73;36.17;;;1.00;87.00;;;;;;5122667;27;20023;-75
2021/01/17 06:25:28;;;;;;;60.03;35.10;;;1.10;87.00;;;;;;5121066;27;20031;-75
2021/01/17 06:28:14;;;;;;;60.23;35.20;;;1.00;86.90;;;;;;5123428;27;20035;-75
2021/01/17 06:30:41;;;;;;;61.83;36.00;;;1.10;86.90;;;;;;5123159;27;20054;-74
2021/01/17 06:33:07;;;;;;;63.42;35.20;;;1.00;86.90;;;;;;5124668;27;20058;-74
2021/01/17 06:35:38;;;;;;;62.60;34.37;;;1.00;87.10;;;;;;5124224;27;20027;-74
2021/01/17 06:38:18;;;;;;;65.25;35.85;;;1.10;87.00;;;;;;5121373;27;20133;-74
2021/01/17 06:40:46;;;;;;;65.03;35.93;;;1.10;87.00;;;;;;5128175;27;20065;-74
2021/01/17 06:43:12;;;;;;;62.60;35.70;;;1.10;87.10;;;;;;5127549;27;20068;-74
2021/01/17 06:45:40;;;;;;;60.60;35.20;;;1.10;87.20;;;;;;5124078;27;20091;-74
2021/01/17 06:48:06;;;;;;;63.88;36.65;;;1.10;87.00;;;;;;5126536;27;20046;-74
2021/01/17 06:50:32;;;;;;;61.30;35.27;;;1.00;87.20;;;;;;5122577;27;20067;-74
2021/01/17 06:52:59;;;;;;;63.38;34.85;;;1.10;87.20;;;;;;5111852;27;20386;-74
2021/01/17 06:55:25;;;;;;;58.65;34.08;;;1.10;87.20;;;;;;5132289;27;20110;-77
2021/01/17 06:57:52;;;;;;;57.90;32.88;;;1.10;87.10;;;;;;5127345;27;20063;-77
2021/01/17 07:00:18;;;;;;;57.70;34.17;;;1.10;87.30;;;;;;5133857;27;20046;-78
2021/01/17 07:02:58;;;;;;;58.63;32.07;;;1.10;87.20;;;;;;5128892;27;20039;-77
2021/01/17 07:05:53;;;;;;;55.83;32.90;;;1.10;87.20;;;;;;5130030;27;20035;-77
2021/01/17 07:08:47;;;;;;;55.53;31.93;;;1.10;87.20;;;;;;5131942;27;20041;-78
2021/01/17 07:11:22;;;;;;;59.20;33.47;;;1.10;87.20;;;;;;5137452;27;20054;-77
2021/01/17 07:13:50;;;;;;;56.92;33.03;;;1.10;87.30;;;;;;5136267;27;20499;-77
2021/01/17 07:16:31;;;;;;;54.13;32.20;;;1.10;87.40;;;;;;5136508;27;20050;-77
2021/01/17 07:19:02;;;;;;;55.13;32.00;;;1.10;87.30;;;;;;5133110;27;20055;-78
2021/01/17 07:21:33;;;;;;;53.88;32.70;;;1.10;87.40;;;;;;5123203;27;20050;-75
2021/01/17 07:24:03;;;;;;;53.93;30.80;;;1.10;87.40;;;;;;5120750;27;20041;-75
2021/01/17 07:26:52;;;;;;;52.00;31.90;;;1.10;87.40;;;;;;5123954;27;20108;-77
2021/01/17 07:29:19;;;;;;;55.97;31.70;;;1.10;87.40;;;;;;5129874;27;20106;-77
2021/01/17 07:31:46;;;;;;;57.13;30.93;;;1.10;87.50;;;;;;5131855;27;20055;-77
2021/01/17 07:34:13;;;;;;;56.88;33.13;;;1.10;87.40;;;;;;5130968;27;20046;-76
2021/01/17 07:36:47;;;;;;;49.77;30.20;;;1.00;87.40;;;;;;5128029;27;20395;-75
2021/01/17 07:39:17;;;;;;;53.08;31.20;;;1.10;87.50;;;;;;5123804;27;20127;-75
2021/01/17 07:41:49;;;;;;;54.27;31.43;;;1.10;87.70;;;;;;5121568;27;20035;-73
2021/01/17 07:44:20;;;;;;;51.73;29.20;;;1.10;87.40;;;;;;5122901;27;20083;-76
2021/01/17 07:46:46;;;;;;;54.00;32.03;;;1.10;87.50;;;;;;5128989;27;20114;-77
2021/01/17 07:49:13;;;;;;;50.87;31.63;;;1.10;87.50;;;;;;5125839;27;20069;-74
2021/01/17 07:51:41;;;;;;;53.47;31.77;;;1.10;87.50;;;;;;5124081;27;20027;-76
2021/01/17 07:54:24;;;;;;;54.67;31.83;;;1.10;87.40;;;;;;5123984;27;20409;-77
2021/01/17 07:56:52;;;;;;;52.60;31.17;;;1.10;87.30;;;;;;5121032;27;20053;-77
2021/01/17 07:59:25;;;;;;;52.67;31.03;;;1.10;87.50;;;;;;5109158;27;20039;-76
2021/01/17 08:01:52;;;;;;;56.03;30.85;;;1.10;87.60;;;;;;5127911;27;20036;-77
2021/01/17 08:04:18;;;;;;;53.60;30.33;;;1.10;88.20;;;;;;5126250;27;20458;-77
2021/01/17 08:06:46;;;;;;;53.65;32.42;;;1.10;87.70;;;;;;5122644;27;20035;-77
2021/01/17 08:09:36;;;;;;;50.40;30.10;;;1.10;87.60;;;;;;5120790;27;20042;-74
2021/01/17 08:12:02;;;;;;;52.43;29.73;;;1.10;87.60;;;;;;5121962;27;20054;-74
2021/01/17 08:14:32;;;;;;;46.93;29.23;;;1.10;87.60;;;;;;5121432;27;20035;-76
2021/01/17 08:17:10;;;;;;;50.87;30.97;;;1.10;87.60;;;;;;5121974;27;20114;-76
2021/01/17 08:19:38;;;;;;;46.35;28.60;;;1.10;87.50;;;;;;5125187;27;20187;-77
2021/01/17 08:22:16;;;;;;;48.93;28.73;;;1.10;87.60;;;;;;5124132;27;20072;-74
2021/01/17 08:24:48;;;;;;;50.07;29.77;;;1.10;87.50;;;;;;5119712;27;20122;-74
2021/01/17 08:27:32;;;;;;;46.67;28.80;;;1.20;87.50;;;;;;5125855;27;20050;-76
2021/01/17 08:30:02;;;;;;;49.37;29.67;;;1.20;87.20;;;;;;5126615;27;20058;-77
2021/01/17 08:32:53;;;;;;;50.67;30.23;;;1.20;87.30;;;;;;5127577;27;20046;-77
2021/01/17 08:35:19;;;;;;;47.55;29.40;;;1.20;87.10;;;;;;5118957;27;20394;-77
2021/01/17 08:37:45;;;;;;;46.80;28.53;;;1.20;87.20;;;;;;5128983;27;20040;-78
2021/01/17 08:40:15;;;;;;;45.97;28.10;;;1.30;87.10;;;;;;5133350;27;20112;-77
2021/01/17 08:42:50;;;;;;;52.60;31.13;;;1.30;87.00;;;;;;5124546;27;20062;-75
2021/01/17 08:45:21;;;;;;;52.60;31.07;;;1.30;86.90;;;;;;5123525;27;20548;-75
2021/01/17 08:47:48;;;;;;;45.97;27.90;;;1.30;87.40;;;;;;5126603;27;20031;-75
2021/01/17 08:50:34;;;;;;;46.60;27.88;;;1.30;86.80;;;;;;5129300;27;20039;-78
2021/01/17 08:53:13;;;;;;;51.60;29.77;;;1.30;86.80;;;;;;5130982;27;20434;-78
2021/01/17 08:55:41;;;;;;;50.17;30.47;;;1.30;86.90;;;;;;5132077;27;20049;-79
2021/01/17 08:58:08;;;;;;;48.70;30.37;;;1.30;86.80;;;;;;5133826;27;20084;-79
2021/01/17 09:00:48;;;;;;;46.97;27.92;;;1.30;87.00;;;;;;5127557;27;20055;-78
2021/01/17 09:03:25;;;;;;;48.25;28.50;;;1.40;87.10;;;;;;5113714;27;20050;-76
2021/01/17 09:05:58;;;;;;;43.00;27.05;;;1.30;87.00;;;;;;5128771;27;20039;-78
2021/01/17 09:08:25;;;;;;;48.55;28.60;;;1.30;87.10;;;;;;5131825;27;20032;-79
2021/01/17 09:10:52;;;;;;;49.63;29.73;;;1.30;87.20;;;;;;5126236;27;20058;-79
2021/01/17 09:13:19;;;;;;;51.47;29.57;;;1.30;87.20;;;;;;5133011;27;20391;-79
2021/01/17 09:15:57;;;;;;;47.47;29.92;;;1.30;87.20;;;;;;5136123;27;20114;-72
2021/01/17 09:18:24;;;;;;;44.27;26.93;;;1.30;87.20;;;;;;5123859;27;20503;-73
2021/01/17 09:20:55;;;;;;;51.63;29.70;;;1.40;87.40;;;;;;5123512;27;20046;-72
2021/01/17 09:23:22;;;;;;;44.90;25.88;;;1.30;87.30;;;;;;5126162;27;20077;-72
2021/01/17 09:25:55;;;;;;;45.85;27.85;;;1.30;87.40;;;;;;5128669;27;20062;-72
2021/01/17 09:28:20;;;;;;;45.13;28.23;;;1.40;87.40;;;;;;5126566;27;20077;-73
2021/01/17 09:30:50;;;;;;;43.25;26.33;;;1.40;87.40;;;;;;5134512;27;22230;-78
2021/01/17 09:33:18;;;;;;;46.63;27.65;;;1.40;87.50;;;;;;5134186;27;20036;-78
2021/01/17 09:35:45;;;;;;;47.60;29.07;;;1.40;87.50;;;;;;5129384;27;20071;-73
2021/01/17 09:38:16;;;;;;;46.60;27.98;;;1.50;87.50;;;;;;5129508;27;20627;-73
2021/01/17 09:40:46;;;;;;;45.90;29.10;;;1.50;87.40;;;;;;5120137;27;20032;-73
2021/01/17 09:43:12;;;;;;;49.03;29.23;;;1.50;87.40;;;;;;5123485;27;20047;-73
2021/01/17 09:45:38;;;;;;;48.10;28.70;;;1.50;87.30;;;;;;5127448;27;20043;-73
2021/01/17 09:48:05;;;;;;;51.17;28.73;;;1.60;87.20;;;;;;5126928;27;20096;-73
2021/01/17 09:50:36;;;;;;;46.08;28.40;;;1.60;87.20;;;;;;5124004;27;20041;-73
2021/01/17 09:53:06;;;;;;;48.63;29.03;;;1.60;87.00;;;;;;5122513;27;20038;-74
2021/01/17 09:55:33;;;;;;;48.47;30.00;;;1.60;87.50;;;;;;5124453;27;20085;-72
2021/01/17 09:58:04;;;;;;;48.37;29.57;;;1.60;87.00;;;;;;5107596;27;20138;-72
2021/01/17 10:00:30;;;;;;;46.37;28.33;;;1.60;87.00;;;;;;5123159;27;20136;-71
2021/01/17 10:02:56;;;;;;;45.70;29.17;;;1.70;87.10;;;;;;5125120;27;20641;-80
2021/01/17 10:05:29;;;;;;;47.07;28.57;;;1.70;87.00;;;;;;5113129;27;20393;-74
2021/01/17 10:08:26;;;;;;;46.42;28.30;;;1.70;87.10;;;;;;5124815;27;20039;-74
2021/01/17 10:10:53;;;;;;;47.08;30.63;;;1.70;87.40;;;;;;5133860;27;20498;-81
2021/01/17 10:13:19;;;;;;;53.42;30.05;;;1.70;87.10;;;;;;5132509;27;20483;-81
2021/01/17 10:15:47;;;;;;;43.85;27.52;;;1.70;87.10;;;;;;5139424;27;20075;-79
2021/01/17 10:18:13;;;;;;;46.97;29.75;;;1.70;87.00;;;;;;5140074;27;20079;-80
2021/01/17 10:20:39;;;;;;;43.05;26.65;;;1.70;86.80;;;;;;5129658;27;20080;-78
2021/01/17 10:23:10;;;;;;;44.30;27.63;;;1.70;86.80;;;;;;5144227;27;20035;-78
2021/01/17 10:25:36;;;;;;;49.03;30.02;;;1.70;86.90;;;;;;5130816;27;20027;-79
2021/01/17 10:28:07;;;;;;;43.30;26.70;;;1.60;86.90;;;;;;5130613;27;20368;-79
2021/01/17 10:30:36;;;;;;;43.45;27.33;;;1.70;87.00;;;;;;5132685;27;20054;-79
2021/01/17 10:33:06;;;;;;;48.57;29.07;;;1.60;87.00;;;;;;5139709;27;20065;-79
2021/01/17 10:35:35;;;;;;;50.45;27.83;;;1.60;87.00;;;;;;5108448;27;20042;-79
2021/01/17 10:38:06;;;;;;;47.15;27.33;;;1.60;87.00;;;;;;5134843;27;20031;-79
2021/01/17 10:40:33;;;;;;;44.58;27.25;;;1.60;87.20;;;;;;5134850;27;20560;-79
2021/01/17 10:43:00;;;;;;;46.13;26.58;;;1.60;87.30;;;;;;5125472;27;20039;-80
2021/01/17 10:45:27;;;;;;;49.20;28.58;;;1.60;87.30;;;;;;5148749;27;20035;-80
2021/01/17 10:47:57;;;;;;;46.67;27.60;;;1.70;87.30;;;;;;5143658;27;20038;-81
2021/01/17 10:50:26;;;;;;;50.22;28.67;;;1.70;87.40;;;;;;5138005;27;20432;-80
2021/01/17 10:53:16;;;;;;;45.95;26.90;;;1.70;87.30;;;;;;5130103;27;20491;-80
2021/01/17 10:55:50;;;;;;;48.47;28.88;;;1.60;87.30;;;;;;5116667;27;20465;-79
2021/01/17 10:58:35;;;;;;;46.78;26.65;;;1.60;87.30;;;;;;5121469;27;20073;-80
2021/01/17 11:01:01;;;;;;;49.65;28.35;;;1.60;87.90;;;;;;5130407;27;20035;-80
2021/01/17 11:03:31;;;;;;;55.80;28.30;;;1.50;87.60;;;;;;5133939;27;20409;-79
2021/01/17 11:06:10;;;;;;;49.58;28.13;;;1.50;87.70;;;;;;5110938;27;20057;-78
2021/01/17 11:08:55;;;;;;;50.97;28.05;;;1.40;87.70;;;;;;5137402;27;20038;-77
2021/01/17 11:11:33;;;;;;;54.53;28.60;;;1.40;87.90;;;;;;5129806;27;20108;-80
2021/01/17 11:14:01;;;;;;;53.03;29.17;;;1.40;88.00;;;;;;5116125;27;20156;-80
2021/01/17 11:16:33;;;;;;;57.05;30.00;;;1.40;88.20;;;;;;5133570;27;20056;-79
2021/01/17 11:18:59;;;;;;;62.17;31.02;;;1.40;88.10;;;;;;5132874;27;20057;-79
2021/01/17 11:21:26;;;;;;;53.65;29.00;;;1.40;88.00;;;;;;5125283;27;20047;-79
2021/01/17 11:23:53;;;;;;;56.60;29.05;;;1.40;88.20;;;;;;5128200;27;20031;-81
2021/01/17 11:26:22;;;;;;;64.18;28.45;;;1.40;88.40;;;;;;5124185;27;20040;-80
2021/01/17 11:28:53;;;;;;;53.70;30.00;;;1.40;88.50;;;;;;5138101;27;20074;-80
2021/01/17 11:31:20;;;;;;;57.80;29.33;;;1.40;88.60;;;;;;5122301;27;20074;-81
2021/01/17 11:33:47;;;;;;;50.20;28.95;;;1.40;88.80;;;;;;5130187;27;20088;-80
2021/01/17 11:36:24;;;;;;;56.73;28.60;;;1.40;89.00;;;;;;5120107;27;20033;-81
2021/01/17 11:38:53;;;;;;;54.53;28.57;;;1.40;88.80;;;;;;5130168;27;20491;-82
2021/01/17 11:41:23;;;;;;;54.53;28.42;;;1.40;88.80;;;;;;5130234;27;20036;-82
2021/01/17 11:43:50;;;;;;;57.20;29.03;;;1.40;89.00;;;;;;5139689;27;20038;-79
2021/01/17 11:46:16;;;;;;;55.57;28.47;;;1.40;89.00;;;;;;5137293;27;20038;-79
2021/01/17 11:48:43;;;;;;;53.95;27.25;;;1.40;89.00;;;;;;5132515;27;20031;-79
2021/01/17 11:51:11;;;;;;;57.72;28.17;;;1.50;88.90;;;;;;5125649;27;20478;-79
2021/01/17 11:53:38;;;;;;;54.70;28.77;;;1.50;89.00;;;;;;5109692;27;20513;-79
2021/01/17 11:56:04;;;;;;;52.05;30.33;;;1.50;88.90;;;;;;5134268;27;20035;-80
2021/01/17 11:58:41;;;;;;;54.57;29.00;;;1.60;89.20;;;;;;5122152;27;22448;-78
2021/01/17 12:01:07;;;;;;;56.15;30.08;;;1.70;88.90;;;;;;5115319;27;20117;-80
2021/01/17 12:03:40;;;;;;;49.78;27.63;;;1.80;89.00;;;;;;5113999;27;20112;-80
2021/01/17 12:06:16;;;;;;;49.83;28.17;;;1.80;88.80;;;;;;5134611;27;20030;-81
2021/01/17 12:08:57;;;;;;;50.30;26.35;;;1.90;88.80;;;;;;5145408;27;20036;-79
2021/01/17 12:11:46;;;;;;;48.58;27.15;;;1.90;88.80;;;;;;5118125;27;20039;-75
2021/01/17 12:14:14;;;;;;;47.08;27.08;;;2.00;88.50;;;;;;5121531;27;20039;-75
2021/01/17 12:16:40;;;;;;;51.47;27.90;;;2.00;88.40;;;;;;5119891;27;20169;-74
2021/01/17 12:19:07;;;;;;;55.53;28.40;;;2.00;88.40;;;;;;5118558;27;20122;-74
2021/01/17 12:21:34;;;;;;;45.90;26.60;;;2.10;88.40;;;;;;5120325;27;20057;-75
2021/01/17 12:24:00;;;;;;;46.10;26.85;;;2.10;88.40;;;;;;5117893;27;20096;-75
2021/01/17 12:26:26;;;;;;;53.10;27.48;;;2.10;88.20;;;;;;5121194;27;20034;-74
2021/01/17 12:28:53;;;;;;;46.55;26.42;;;2.20;88.20;;;;;;5117624;27;20574;-75
2021/01/17 12:31:21;;;;;;;52.45;26.80;;;2.20;88.10;;;;;;5124256;27;20139;-75
2021/01/17 12:33:48;;;;;;;50.85;27.63;;;2.20;88.00;;;;;;5122083;27;20023;-74
2021/01/17 12:36:20;;;;;;;54.63;27.83;;;2.10;87.80;;;;;;5122799;27;20912;-75
2021/01/17 12:38:47;;;;;;;54.40;27.33;;;2.10;87.90;;;;;;5107887;27;20067;-75
2021/01/17 12:41:15;;;;;;;56.88;29.73;;;2.00;87.90;;;;;;5121947;27;20039;-75
2021/01/17 12:43:42;;;;;;;51.88;28.13;;;2.00;87.90;;;;;;5118256;27;20039;-75
2021/01/17 12:46:08;;;;;;;60.72;29.55;;;2.00;87.90;;;;;;5121602;27;20048;-75
2021/01/17 12:48:36;;;;;;;49.28;27.80;;;2.00;87.90;;;;;;5122093;27;20047;-75